sensor_id;sensor_type;location;lat;lon;timestamp;pressure;altitude;pressure_sealevel;temperature;humidity
10652;BME280;5374;42.742;23.266;2023-03-14T00:00:13;95686.00;;;2.40;67.77
10652;BME280;5374;42.742;23.266;2023-03-14T00:03:02;95682.41;;;2.48;67.79
10652;BME280;5374;42.742;23.266;2023-03-14T00:05:50;95717.88;;;2.44;67.79
10652;BME280;5374;42.742;23.266;2023-03-14T00:08:37;95652.19;;;2.17;68.19
10652;BME280;5374;42.742;23.266;2023-03-14T00:11:24;95671.84;;;2.34;68.32
10652;BME280;5374;42.742;23.266;2023-03-14T00:14:11;95674.28;;;2.36;68.41
10652;BME280;5374;42.742;23.266;2023-03-14T00:17:01;95670.66;;;2.37;68.19
10652;BME280;5374;42.742;23.266;2023-03-14T00:19:49;95660.50;;;2.27;68.21
10652;BME280;5374;42.742;23.266;2023-03-14T00:22:40;95661.31;;;2.28;68.48
10652;BME280;5374;42.742;23.266;2023-03-14T00:25:27;95667.03;;;2.38;68.55
10652;BME280;5374;42.742;23.266;2023-03-14T00:28:14;95655.31;;;2.34;68.70
10652;BME280;5374;42.742;23.266;2023-03-14T00:31:02;95635.91;;;2.22;68.69
10652;BME280;5374;42.742;23.266;2023-03-14T00:33:51;95649.84;;;2.29;68.85
10652;BME280;5374;42.742;23.266;2023-03-14T00:36:40;95650.84;;;2.28;68.92
10652;BME280;5374;42.742;23.266;2023-03-14T00:39:27;95659.69;;;2.27;68.87
10652;BME280;5374;42.742;23.266;2023-03-14T00:42:14;95611.59;;;2.00;68.81
10652;BME280;5374;42.742;23.266;2023-03-14T00:45:02;95645.56;;;2.21;68.76
10652;BME280;5374;42.742;23.266;2023-03-14T00:47:49;95651.19;;;2.18;68.73
10652;BME280;5374;42.742;23.266;2023-03-14T00:50:36;95641.53;;;2.19;68.68
10652;BME280;5374;42.742;23.266;2023-03-14T00:53:25;95644.72;;;2.14;68.74
10652;BME280;5374;42.742;23.266;2023-03-14T00:56:14;95633.44;;;2.14;68.54
10652;BME280;5374;42.742;23.266;2023-03-14T00:59:01;95633.44;;;2.14;68.49
10652;BME280;5374;42.742;23.266;2023-03-14T01:01:49;95625.53;;;2.07;68.45
10652;BME280;5374;42.742;23.266;2023-03-14T01:04:36;95617.41;;;1.95;68.41
10652;BME280;5374;42.742;23.266;2023-03-14T01:07:25;95622.91;;;2.07;68.67
10652;BME280;5374;42.742;23.266;2023-03-14T01:10:13;95624.50;;;2.01;69.00
10652;BME280;5374;42.742;23.266;2023-03-14T01:13:01;95579.56;;;1.70;69.02
10652;BME280;5374;42.742;23.266;2023-03-14T01:15:48;95615.78;;;1.94;69.36
10652;BME280;5374;42.742;23.266;2023-03-14T01:18:36;95620.03;;;1.95;69.26
10652;BME280;5374;42.742;23.266;2023-03-14T01:21:29;95601.44;;;1.90;69.49
10652;BME280;5374;42.742;23.266;2023-03-14T01:24:17;95586.88;;;1.81;69.01
10652;BME280;5374;42.742;23.266;2023-03-14T01:27:07;95585.25;;;1.74;69.59
10652;BME280;5374;42.742;23.266;2023-03-14T01:29:54;95612.88;;;1.83;69.83
10652;BME280;5374;42.742;23.266;2023-03-14T01:32:41;95590.91;;;1.77;69.81
10652;BME280;5374;42.742;23.266;2023-03-14T01:35:28;95574.91;;;1.65;70.16
10652;BME280;5374;42.742;23.266;2023-03-14T01:38:16;95593.28;;;1.72;70.28
10652;BME280;5374;42.742;23.266;2023-03-14T01:41:03;95601.19;;;1.79;70.14
10652;BME280;5374;42.742;23.266;2023-03-14T01:43:52;95594.53;;;1.76;70.32
10652;BME280;5374;42.742;23.266;2023-03-14T01:46:40;95586.66;;;1.76;70.07
10652;BME280;5374;42.742;23.266;2023-03-14T01:49:29;95584.44;;;1.73;70.34
10652;BME280;5374;42.742;23.266;2023-03-14T01:52:20;95586.25;;;1.73;70.28
10652;BME280;5374;42.742;23.266;2023-03-14T01:55:12;95544.97;;;1.47;70.30
10652;BME280;5374;42.742;23.266;2023-03-14T01:58:02;95566.19;;;1.58;70.31
10652;BME280;5374;42.742;23.266;2023-03-14T02:00:51;95576.16;;;1.69;70.45
10652;BME280;5374;42.742;23.266;2023-03-14T02:03:45;95571.09;;;1.68;70.51
10652;BME280;5374;42.742;23.266;2023-03-14T02:06:40;95574.72;;;1.67;70.54
10652;BME280;5374;42.742;23.266;2023-03-14T02:09:30;95583.56;;;1.66;70.26
10652;BME280;5374;42.742;23.266;2023-03-14T02:12:18;95573.09;;;1.66;70.11
10652;BME280;5374;42.742;23.266;2023-03-14T02:15:07;95571.47;;;1.65;70.04
10652;BME280;5374;42.742;23.266;2023-03-14T02:17:57;95575.72;;;1.66;70.43
10652;BME280;5374;42.742;23.266;2023-03-14T02:20:48;95572.47;;;1.64;70.48
10652;BME280;5374;42.742;23.266;2023-03-14T02:23:44;95573.47;;;1.63;70.46
10652;BME280;5374;42.742;23.266;2023-03-14T02:26:37;95572.66;;;1.62;70.52
10652;BME280;5374;42.742;23.266;2023-03-14T02:29:28;95573.47;;;1.63;70.44
10652;BME280;5374;42.742;23.266;2023-03-14T02:32:16;95575.25;;;1.56;70.57
10652;BME280;5374;42.742;23.266;2023-03-14T02:35:08;95579.72;;;1.62;70.25
10652;BME280;5374;42.742;23.266;2023-03-14T02:38:00;95577.47;;;1.59;70.50
10652;BME280;5374;42.742;23.266;2023-03-14T02:40:50;95581.31;;;1.56;70.66
10652;BME280;5374;42.742;23.266;2023-03-14T02:43:37;95582.25;;;1.49;70.63
10652;BME280;5374;42.742;23.266;2023-03-14T02:46:26;95578.38;;;1.45;71.15
10652;BME280;5374;42.742;23.266;2023-03-14T02:49:14;95536.50;;;1.17;71.01
10652;BME280;5374;42.742;23.266;2023-03-14T02:52:01;95573.09;;;1.38;71.14
10652;BME280;5374;42.742;23.266;2023-03-14T02:54:49;95573.69;;;1.33;70.95
10652;BME280;5374;42.742;23.266;2023-03-14T02:57:36;95584.34;;;1.38;71.19
10652;BME280;5374;42.742;23.266;2023-03-14T03:00:23;95530.78;;;1.07;70.97
10652;BME280;5374;42.742;23.266;2023-03-14T03:03:12;95574.28;;;1.35;71.00
10652;BME280;5374;42.742;23.266;2023-03-14T03:05:59;95576.66;;;1.30;71.11
10652;BME280;5374;42.742;23.266;2023-03-14T03:08:46;95579.09;;;1.32;71.23
10652;BME280;5374;42.742;23.266;2023-03-14T03:11:33;95575.59;;;1.25;71.67
10652;BME280;5374;42.742;23.266;2023-03-14T03:14:21;95584.69;;;1.29;71.61
10652;BME280;5374;42.742;23.266;2023-03-14T03:17:08;95579.84;;;1.26;71.41
10652;BME280;5374;42.742;23.266;2023-03-14T03:19:56;95541.63;;;1.03;71.34
10652;BME280;5374;42.742;23.266;2023-03-14T03:22:43;95579.22;;;1.24;71.56
10652;BME280;5374;42.742;23.266;2023-03-14T03:25:31;95564.69;;;1.21;71.24
10652;BME280;5374;42.742;23.266;2023-03-14T03:28:18;95579.59;;;1.21;71.70
10652;BME280;5374;42.742;23.266;2023-03-14T03:31:10;95569.31;;;1.19;71.36
10652;BME280;5374;42.742;23.266;2023-03-14T03:33:57;95579.34;;;1.16;71.67
10652;BME280;5374;42.742;23.266;2023-03-14T03:36:45;95585.75;;;1.13;72.25
10652;BME280;5374;42.742;23.266;2023-03-14T03:39:33;95541.53;;;0.90;72.06
10652;BME280;5374;42.742;23.266;2023-03-14T03:42:23;95564.72;;;1.00;72.01
10652;BME280;5374;42.742;23.266;2023-03-14T03:45:10;95579.50;;;1.14;71.85
10652;BME280;5374;42.742;23.266;2023-03-14T03:47:57;95509.31;;;0.68;71.81
10652;BME280;5374;42.742;23.266;2023-03-14T03:50:45;95576.50;;;1.11;71.83
10652;BME280;5374;42.742;23.266;2023-03-14T03:53:33;95576.69;;;1.09;72.11
10652;BME280;5374;42.742;23.266;2023-03-14T03:56:20;95453.28;;;0.28;71.69
10652;BME280;5374;42.742;23.266;2023-03-14T03:59:07;95581.09;;;1.09;71.86
10652;BME280;5374;42.742;23.266;2023-03-14T04:01:54;95585.69;;;1.07;72.14
10652;BME280;5374;42.742;23.266;2023-03-14T04:04:41;95589.13;;;1.07;71.92
10652;BME280;5374;42.742;23.266;2023-03-14T04:07:31;95579.03;;;1.04;72.18
10652;BME280;5374;42.742;23.266;2023-03-14T04:10:19;95577.22;;;1.05;71.91
10652;BME280;5374;42.742;23.266;2023-03-14T04:13:07;95580.03;;;1.03;71.80
10652;BME280;5374;42.742;23.266;2023-03-14T04:15:55;95570.56;;;1.02;72.02
10652;BME280;5374;42.742;23.266;2023-03-14T04:18:42;95559.22;;;0.95;71.64
10652;BME280;5374;42.742;23.266;2023-03-14T04:21:29;95570.94;;;0.99;72.13
10652;BME280;5374;42.742;23.266;2023-03-14T04:30:59;95552.63;;;0.99;72.03
10652;BME280;5374;42.742;23.266;2023-03-14T04:34:54;95443.88;;;0.13;72.07
10652;BME280;5374;42.742;23.266;2023-03-14T04:38:00;95523.41;;;0.89;71.86
10652;BME280;5374;42.742;23.266;2023-03-14T04:40:48;95514.56;;;0.90;71.75
10652;BME280;5374;42.742;23.266;2023-03-14T04:43:35;95531.53;;;1.00;71.61
10652;BME280;5374;42.742;23.266;2023-03-14T04:46:24;95517.50;;;0.80;71.94
10652;BME280;5374;42.742;23.266;2023-03-14T04:49:11;95532.59;;;1.06;71.97
10652;BME280;5374;42.742;23.266;2023-03-14T04:51:58;95541.69;;;1.10;71.79
10652;BME280;5374;42.742;23.266;2023-03-14T04:54:45;95534.47;;;1.12;71.99
10652;BME280;5374;42.742;23.266;2023-03-14T04:57:32;95535.06;;;1.14;72.23
10652;BME280;5374;42.742;23.266;2023-03-14T05:00:20;95531.69;;;1.20;72.31
10652;BME280;5374;42.742;23.266;2023-03-14T05:03:08;95538.19;;;1.24;72.08
10652;BME280;5374;42.742;23.266;2023-03-14T05:05:55;95524.72;;;1.27;71.87
10652;BME280;5374;42.742;23.266;2023-03-14T05:08:44;95524.97;;;1.32;71.75
10652;BME280;5374;42.742;23.266;2023-03-14T05:11:31;95531.03;;;1.40;71.66
10652;BME280;5374;42.742;23.266;2023-03-14T05:14:19;95529.53;;;1.52;71.55
10652;BME280;5374;42.742;23.266;2023-03-14T05:17:06;95529.59;;;1.65;71.16
10652;BME280;5374;42.742;23.266;2023-03-14T05:19:55;95526.03;;;1.73;70.81
10652;BME280;5374;42.742;23.266;2023-03-14T05:22:42;95518.28;;;1.92;70.85
10652;BME280;5374;42.742;23.266;2023-03-14T05:25:30;95529.44;;;2.08;70.86
10652;BME280;5374;42.742;23.266;2023-03-14T05:28:17;95529.94;;;2.31;70.14
10652;BME280;5374;42.742;23.266;2023-03-14T05:31:06;95517.13;;;2.56;69.74
10652;BME280;5374;42.742;23.266;2023-03-14T05:33:54;95516.56;;;5.13;64.56
10652;BME280;5374;42.742;23.266;2023-03-14T05:36:42;95504.84;;;9.69;51.13
10652;BME280;5374;42.742;23.266;2023-03-14T05:39:30;95494.63;;;13.39;41.01
10652;BME280;5374;42.742;23.266;2023-03-14T05:42:17;95440.59;;;16.24;34.96
10652;BME280;5374;42.742;23.266;2023-03-14T05:45:05;95489.16;;;18.15;31.29
10652;BME280;5374;42.742;23.266;2023-03-14T05:47:53;95505.88;;;20.16;28.08
10652;BME280;5374;42.742;23.266;2023-03-14T05:50:40;95500.03;;;21.41;25.60
10652;BME280;5374;42.742;23.266;2023-03-14T05:53:28;95482.66;;;22.29;24.44
10652;BME280;5374;42.742;23.266;2023-03-14T05:56:16;95509.72;;;24.17;23.00
10652;BME280;5374;42.742;23.266;2023-03-14T05:59:03;95517.81;;;25.69;21.01
10652;BME280;5374;42.742;23.266;2023-03-14T06:01:50;95500.31;;;26.10;19.98
10652;BME280;5374;42.742;23.266;2023-03-14T06:04:38;95514.13;;;25.12;20.47
10652;BME280;5374;42.742;23.266;2023-03-14T06:07:25;95507.28;;;23.92;21.38
10652;BME280;5374;42.742;23.266;2023-03-14T06:10:14;95512.31;;;23.60;21.96
10652;BME280;5374;42.742;23.266;2023-03-14T06:13:01;95503.19;;;25.73;20.26
10652;BME280;5374;42.742;23.266;2023-03-14T06:15:48;95497.81;;;25.77;19.94
10652;BME280;5374;42.742;23.266;2023-03-14T06:18:35;95505.91;;;25.61;20.09
10652;BME280;5374;42.742;23.266;2023-03-14T06:21:22;95505.41;;;27.84;18.55
10652;BME280;5374;42.742;23.266;2023-03-14T06:24:09;95501.41;;;29.80;17.31
10652;BME280;5374;42.742;23.266;2023-03-14T06:27:04;95502.91;;;30.04;17.34
10652;BME280;5374;42.742;23.266;2023-03-14T06:29:52;95493.50;;;31.78;16.12
10652;BME280;5374;42.742;23.266;2023-03-14T06:32:39;95489.91;;;33.78;14.93
10652;BME280;5374;42.742;23.266;2023-03-14T06:35:26;95494.75;;;35.10;13.91
10652;BME280;5374;42.742;23.266;2023-03-14T06:38:14;95486.22;;;35.83;13.45
10652;BME280;5374;42.742;23.266;2023-03-14T06:41:05;95487.75;;;36.52;12.60
10652;BME280;5374;42.742;23.266;2023-03-14T06:43:54;95483.34;;;37.35;12.72
10652;BME280;5374;42.742;23.266;2023-03-14T06:46:41;95484.31;;;37.91;11.72
10652;BME280;5374;42.742;23.266;2023-03-14T06:49:28;95482.75;;;37.90;12.19
10652;BME280;5374;42.742;23.266;2023-03-14T06:52:15;95472.94;;;37.62;12.33
10652;BME280;5374;42.742;23.266;2023-03-14T06:55:03;95460.19;;;36.98;12.09
10652;BME280;5374;42.742;23.266;2023-03-14T06:57:50;95457.50;;;36.64;12.36
10652;BME280;5374;42.742;23.266;2023-03-14T07:00:39;95455.13;;;34.82;13.24
10652;BME280;5374;42.742;23.266;2023-03-14T07:03:26;95457.63;;;33.68;13.64
10652;BME280;5374;42.742;23.266;2023-03-14T07:06:13;95461.56;;;33.67;13.21
10652;BME280;5374;42.742;23.266;2023-03-14T07:09:01;95441.31;;;31.75;14.18
10652;BME280;5374;42.742;23.266;2023-03-14T07:11:48;95454.63;;;29.36;15.84
10652;BME280;5374;42.742;23.266;2023-03-14T07:14:35;95467.06;;;27.07;17.36
10652;BME280;5374;42.742;23.266;2023-03-14T07:17:24;95465.09;;;25.09;18.62
10652;BME280;5374;42.742;23.266;2023-03-14T07:20:11;95470.91;;;22.63;21.08
10652;BME280;5374;42.742;23.266;2023-03-14T07:22:59;95472.81;;;21.98;21.96
10652;BME280;5374;42.742;23.266;2023-03-14T07:25:48;95458.38;;;21.34;23.02
10652;BME280;5374;42.742;23.266;2023-03-14T07:28:36;95452.47;;;20.58;24.21
10652;BME280;5374;42.742;23.266;2023-03-14T07:31:23;95447.06;;;19.87;25.44
10652;BME280;5374;42.742;23.266;2023-03-14T07:34:12;95452.88;;;19.44;25.19
10652;BME280;5374;42.742;23.266;2023-03-14T07:36:59;95442.19;;;18.95;26.21
10652;BME280;5374;42.742;23.266;2023-03-14T07:39:46;95443.38;;;18.34;26.53
10652;BME280;5374;42.742;23.266;2023-03-14T07:42:33;95447.09;;;17.78;27.82
10652;BME280;5374;42.742;23.266;2023-03-14T07:45:20;95437.94;;;17.28;28.34
10652;BME280;5374;42.742;23.266;2023-03-14T07:48:08;95421.38;;;16.40;29.76
10652;BME280;5374;42.742;23.266;2023-03-14T07:50:57;95440.78;;;15.80;30.77
10652;BME280;5374;42.742;23.266;2023-03-14T07:53:44;95433.91;;;15.68;30.88
10652;BME280;5374;42.742;23.266;2023-03-14T07:56:31;95441.56;;;15.46;31.95
10652;BME280;5374;42.742;23.266;2023-03-14T07:59:18;95437.59;;;15.38;31.47
10652;BME280;5374;42.742;23.266;2023-03-14T08:02:08;95431.31;;;15.24;32.17
10652;BME280;5374;42.742;23.266;2023-03-14T08:04:57;95428.91;;;14.84;32.92
10652;BME280;5374;42.742;23.266;2023-03-14T08:07:46;95423.31;;;14.75;31.97
10652;BME280;5374;42.742;23.266;2023-03-14T08:10:33;95423.41;;;14.60;34.46
10652;BME280;5374;42.742;23.266;2023-03-14T08:13:20;95425.53;;;14.63;32.79
10652;BME280;5374;42.742;23.266;2023-03-14T08:16:09;95433.19;;;14.15;32.66
10652;BME280;5374;42.742;23.266;2023-03-14T08:18:56;95414.56;;;13.85;33.65
10652;BME280;5374;42.742;23.266;2023-03-14T08:21:43;95421.56;;;13.55;36.04
10652;BME280;5374;42.742;23.266;2023-03-14T08:24:32;95411.13;;;13.69;34.09
10652;BME280;5374;42.742;23.266;2023-03-14T08:27:19;95427.66;;;13.66;35.99
10652;BME280;5374;42.742;23.266;2023-03-14T08:30:09;95417.25;;;13.75;34.46
10652;BME280;5374;42.742;23.266;2023-03-14T08:32:57;95414.03;;;13.83;34.35
10652;BME280;5374;42.742;23.266;2023-03-14T08:35:44;95400.19;;;13.65;34.13
10652;BME280;5374;42.742;23.266;2023-03-14T08:38:31;95406.06;;;13.78;36.02
10652;BME280;5374;42.742;23.266;2023-03-14T08:41:20;95395.88;;;13.90;34.47
10652;BME280;5374;42.742;23.266;2023-03-14T08:44:07;95384.38;;;13.89;34.46
10652;BME280;5374;42.742;23.266;2023-03-14T08:46:55;95379.84;;;14.00;35.61
10652;BME280;5374;42.742;23.266;2023-03-14T08:49:42;95364.91;;;13.89;33.58
10652;BME280;5374;42.742;23.266;2023-03-14T08:52:29;95380.34;;;14.02;33.59
10652;BME280;5374;42.742;23.266;2023-03-14T08:55:16;95361.81;;;13.46;34.63
10652;BME280;5374;42.742;23.266;2023-03-14T08:58:05;95348.16;;;13.68;35.36
10652;BME280;5374;42.742;23.266;2023-03-14T09:00:52;95359.63;;;13.68;35.71
10652;BME280;5374;42.742;23.266;2023-03-14T09:03:40;95344.94;;;13.71;33.23
10652;BME280;5374;42.742;23.266;2023-03-14T09:06:27;95317.25;;;13.52;32.24
10652;BME280;5374;42.742;23.266;2023-03-14T09:09:14;95350.06;;;13.42;33.09
10652;BME280;5374;42.742;23.266;2023-03-14T09:12:01;95342.56;;;13.59;32.33
10652;BME280;5374;42.742;23.266;2023-03-14T09:14:50;95328.13;;;13.76;31.66
10652;BME280;5374;42.742;23.266;2023-03-14T09:17:37;95316.91;;;13.74;33.92
10652;BME280;5374;42.742;23.266;2023-03-14T09:20:25;95327.88;;;13.72;33.31
10652;BME280;5374;42.742;23.266;2023-03-14T09:23:12;95316.25;;;14.02;33.48
10652;BME280;5374;42.742;23.266;2023-03-14T09:25:59;95312.72;;;14.22;32.67
10652;BME280;5374;42.742;23.266;2023-03-14T09:28:47;95307.88;;;13.64;32.37
10652;BME280;5374;42.742;23.266;2023-03-14T09:31:35;95299.44;;;12.96;34.44
10652;BME280;5374;42.742;23.266;2023-03-14T09:34:23;95296.72;;;13.47;33.63
10652;BME280;5374;42.742;23.266;2023-03-14T09:37:10;95283.28;;;13.78;33.70
10652;BME280;5374;42.742;23.266;2023-03-14T09:39:57;95285.91;;;13.83;33.21
10652;BME280;5374;42.742;23.266;2023-03-14T09:42:44;95225.03;;;13.85;33.39
10652;BME280;5374;42.742;23.266;2023-03-14T09:45:34;95276.34;;;14.26;33.68
10652;BME280;5374;42.742;23.266;2023-03-14T09:48:27;95258.81;;;14.54;31.91
10652;BME280;5374;42.742;23.266;2023-03-14T09:51:17;95256.44;;;13.49;33.11
10652;BME280;5374;42.742;23.266;2023-03-14T09:54:05;95249.72;;;13.56;33.15
10652;BME280;5374;42.742;23.266;2023-03-14T09:56:52;95254.66;;;13.04;34.41
10652;BME280;5374;42.742;23.266;2023-03-14T09:59:42;95245.28;;;13.31;34.38
10652;BME280;5374;42.742;23.266;2023-03-14T10:02:34;95247.38;;;14.04;34.01
10652;BME280;5374;42.742;23.266;2023-03-14T10:05:24;95237.47;;;14.49;31.39
10652;BME280;5374;42.742;23.266;2023-03-14T10:08:14;95227.44;;;13.86;32.09
10652;BME280;5374;42.742;23.266;2023-03-14T10:11:01;95220.84;;;13.74;32.51
10652;BME280;5374;42.742;23.266;2023-03-14T10:14:02;95217.41;;;14.17;30.65
10652;BME280;5374;42.742;23.266;2023-03-14T10:16:50;95173.97;;;14.41;30.95
10652;BME280;5374;42.742;23.266;2023-03-14T10:19:37;95193.34;;;14.56;30.69
10652;BME280;5374;42.742;23.266;2023-03-14T10:22:38;95189.56;;;14.23;30.73
10652;BME280;5374;42.742;23.266;2023-03-14T10:25:27;95177.56;;;14.60;31.94
10652;BME280;5374;42.742;23.266;2023-03-14T10:28:24;95179.72;;;14.87;30.81
10652;BME280;5374;42.742;23.266;2023-03-14T10:31:12;95138.44;;;14.69;29.88
10652;BME280;5374;42.742;23.266;2023-03-14T10:34:01;95133.78;;;14.80;29.80
10652;BME280;5374;42.742;23.266;2023-03-14T10:36:52;95146.44;;;14.98;30.41
10652;BME280;5374;42.742;23.266;2023-03-14T10:39:46;95151.66;;;15.32;28.29
10652;BME280;5374;42.742;23.266;2023-03-14T10:42:39;95135.06;;;15.35;28.92
10652;BME280;5374;42.742;23.266;2023-03-14T10:45:36;95120.72;;;15.26;31.69
10652;BME280;5374;42.742;23.266;2023-03-14T10:48:29;95119.06;;;15.30;30.68
10652;BME280;5374;42.742;23.266;2023-03-14T10:51:19;95119.31;;;15.52;29.04
10652;BME280;5374;42.742;23.266;2023-03-14T10:54:13;95089.63;;;15.49;28.66
10652;BME280;5374;42.742;23.266;2023-03-14T10:57:04;95094.94;;;15.54;30.24
10652;BME280;5374;42.742;23.266;2023-03-14T10:59:52;95100.94;;;15.83;31.00
10652;BME280;5374;42.742;23.266;2023-03-14T11:02:49;95092.22;;;16.10;29.46
10652;BME280;5374;42.742;23.266;2023-03-14T11:05:44;95056.97;;;15.70;29.82
10652;BME280;5374;42.742;23.266;2023-03-14T11:08:38;95049.50;;;15.86;30.53
10652;BME280;5374;42.742;23.266;2023-03-14T11:11:29;95066.94;;;15.84;30.89
10652;BME280;5374;42.742;23.266;2023-03-14T11:14:25;95057.00;;;15.84;30.90
10652;BME280;5374;42.742;23.266;2023-03-14T11:17:18;95052.28;;;15.81;31.49
10652;BME280;5374;42.742;23.266;2023-03-14T11:20:22;95028.28;;;15.90;31.14
10652;BME280;5374;42.742;23.266;2023-03-14T11:23:15;95037.56;;;16.11;31.11
10652;BME280;5374;42.742;23.266;2023-03-14T11:26:14;95025.97;;;16.16;31.91
10652;BME280;5374;42.742;23.266;2023-03-14T11:29:12;95029.00;;;16.41;29.80
10652;BME280;5374;42.742;23.266;2023-03-14T11:32:12;95002.84;;;16.66;30.13
10652;BME280;5374;42.742;23.266;2023-03-14T11:35:03;95013.13;;;16.59;29.81
10652;BME280;5374;42.742;23.266;2023-03-14T11:37:58;94989.94;;;16.68;30.85
10652;BME280;5374;42.742;23.266;2023-03-14T11:40:51;94992.84;;;17.07;30.58
10652;BME280;5374;42.742;23.266;2023-03-14T11:43:40;94984.25;;;17.33;30.35
10652;BME280;5374;42.742;23.266;2023-03-14T11:46:31;94986.44;;;17.31;29.76
10652;BME280;5374;42.742;23.266;2023-03-14T11:49:30;94968.84;;;17.38;29.34
10652;BME280;5374;42.742;23.266;2023-03-14T11:52:23;94966.13;;;17.16;29.85
10652;BME280;5374;42.742;23.266;2023-03-14T11:55:17;94943.63;;;17.26;29.99
10652;BME280;5374;42.742;23.266;2023-03-14T11:58:14;94948.69;;;17.27;29.83
10652;BME280;5374;42.742;23.266;2023-03-14T12:01:11;94944.50;;;17.35;30.71
10652;BME280;5374;42.742;23.266;2023-03-14T12:04:04;94942.59;;;17.35;29.77
10652;BME280;5374;42.742;23.266;2023-03-14T12:06:56;94923.06;;;17.43;29.56
10652;BME280;5374;42.742;23.266;2023-03-14T12:09:44;94913.69;;;17.32;30.73
10652;BME280;5374;42.742;23.266;2023-03-14T12:12:32;94913.38;;;17.12;30.51
10652;BME280;5374;42.742;23.266;2023-03-14T12:15:21;94912.94;;;17.40;29.53
10652;BME280;5374;42.742;23.266;2023-03-14T12:18:19;94909.41;;;17.54;29.94
10652;BME280;5374;42.742;23.266;2023-03-14T12:21:08;94895.06;;;17.58;29.42
10652;BME280;5374;42.742;23.266;2023-03-14T12:23:58;94886.84;;;17.55;30.53
10652;BME280;5374;42.742;23.266;2023-03-14T12:26:52;94890.66;;;17.62;29.32
10652;BME280;5374;42.742;23.266;2023-03-14T12:30:00;94882.19;;;17.47;30.44
10652;BME280;5374;42.742;23.266;2023-03-14T12:33:12;94868.22;;;17.58;29.49
10652;BME280;5374;42.742;23.266;2023-03-14T12:36:20;94880.19;;;17.74;29.19
10652;BME280;5374;42.742;23.266;2023-03-14T12:39:31;94857.97;;;17.60;28.91
10652;BME280;5374;42.742;23.266;2023-03-14T12:42:36;94847.69;;;17.62;28.15
10652;BME280;5374;42.742;23.266;2023-03-14T12:45:27;94861.63;;;17.64;28.32
10652;BME280;5374;42.742;23.266;2023-03-14T12:48:17;94856.16;;;17.25;29.26
10652;BME280;5374;42.742;23.266;2023-03-14T12:51:13;94846.47;;;17.15;28.82
10652;BME280;5374;42.742;23.266;2023-03-14T12:54:22;94824.63;;;17.30;28.87
10652;BME280;5374;42.742;23.266;2023-03-14T12:57:24;94825.63;;;17.43;28.82
10652;BME280;5374;42.742;23.266;2023-03-14T13:00:19;94824.22;;;17.68;29.42
10652;BME280;5374;42.742;23.266;2023-03-14T13:03:18;94820.00;;;17.75;29.06
10652;BME280;5374;42.742;23.266;2023-03-14T13:06:09;94815.84;;;17.69;29.17
10652;BME280;5374;42.742;23.266;2023-03-14T13:08:57;94815.38;;;17.67;28.65
10652;BME280;5374;42.742;23.266;2023-03-14T13:11:46;94808.50;;;17.84;28.38
10652;BME280;5374;42.742;23.266;2023-03-14T13:14:33;94760.56;;;17.68;27.86
10652;BME280;5374;42.742;23.266;2023-03-14T13:17:25;94781.28;;;17.76;28.25
10652;BME280;5374;42.742;23.266;2023-03-14T13:20:16;94794.81;;;17.32;28.65
10652;BME280;5374;42.742;23.266;2023-03-14T13:23:05;94755.03;;;17.34;28.53
10652;BME280;5374;42.742;23.266;2023-03-14T13:26:10;94767.78;;;17.59;28.10
10652;BME280;5374;42.742;23.266;2023-03-14T13:28:59;94760.66;;;17.63;28.28
10652;BME280;5374;42.742;23.266;2023-03-14T13:31:48;94756.56;;;17.57;28.15
10652;BME280;5374;42.742;23.266;2023-03-14T13:34:35;94763.81;;;17.57;28.73
10652;BME280;5374;42.742;23.266;2023-03-14T13:37:24;94747.53;;;17.53;28.74
10652;BME280;5374;42.742;23.266;2023-03-14T13:40:20;94739.78;;;17.52;28.11
10652;BME280;5374;42.742;23.266;2023-03-14T13:43:14;94729.97;;;17.07;28.62
10652;BME280;5374;42.742;23.266;2023-03-14T13:46:05;94723.44;;;17.00;29.90
10652;BME280;5374;42.742;23.266;2023-03-14T13:48:55;94725.47;;;17.25;28.51
10652;BME280;5374;42.742;23.266;2023-03-14T13:51:43;94723.31;;;17.36;28.66
10652;BME280;5374;42.742;23.266;2023-03-14T13:54:31;94710.69;;;17.36;28.02
10652;BME280;5374;42.742;23.266;2023-03-14T13:57:18;94708.06;;;17.54;28.05
10652;BME280;5374;42.742;23.266;2023-03-14T14:00:17;94698.06;;;17.46;28.48
10652;BME280;5374;42.742;23.266;2023-03-14T14:03:10;94692.75;;;17.54;27.62
10652;BME280;5374;42.742;23.266;2023-03-14T14:05:58;94676.59;;;17.46;28.17
10652;BME280;5374;42.742;23.266;2023-03-14T14:08:45;94691.03;;;17.58;27.98
10652;BME280;5374;42.742;23.266;2023-03-14T14:11:40;94674.25;;;17.53;27.76
10652;BME280;5374;42.742;23.266;2023-03-14T14:14:32;94680.69;;;17.43;28.20
10652;BME280;5374;42.742;23.266;2023-03-14T14:17:23;94668.38;;;17.42;27.80
10652;BME280;5374;42.742;23.266;2023-03-14T14:20:18;94661.28;;;17.37;27.58
10652;BME280;5374;42.742;23.266;2023-03-14T14:23:10;94659.19;;;17.26;27.60
10652;BME280;5374;42.742;23.266;2023-03-14T14:25:59;94651.13;;;17.26;27.85
10652;BME280;5374;42.742;23.266;2023-03-14T14:28:46;94633.44;;;17.16;27.85
10652;BME280;5374;42.742;23.266;2023-03-14T14:31:35;94646.53;;;17.26;27.12
10652;BME280;5374;42.742;23.266;2023-03-14T14:34:22;94639.47;;;17.30;27.47
10652;BME280;5374;42.742;23.266;2023-03-14T14:37:31;94629.19;;;17.24;27.80
10652;BME280;5374;42.742;23.266;2023-03-14T14:40:20;94618.75;;;17.22;27.92
10652;BME280;5374;42.742;23.266;2023-03-14T14:43:15;94624.16;;;17.31;27.50
10652;BME280;5374;42.742;23.266;2023-03-14T14:46:06;94601.69;;;17.18;27.65
10652;BME280;5374;42.742;23.266;2023-03-14T14:48:56;94618.75;;;17.14;27.84
10652;BME280;5374;42.742;23.266;2023-03-14T14:51:47;94623.63;;;17.12;27.45
10652;BME280;5374;42.742;23.266;2023-03-14T14:54:38;94608.41;;;16.98;27.77
10652;BME280;5374;42.742;23.266;2023-03-14T14:57:27;94594.03;;;16.86;27.90
10652;BME280;5374;42.742;23.266;2023-03-14T15:00:19;94597.56;;;16.72;28.11
10652;BME280;5374;42.742;23.266;2023-03-14T15:03:12;94590.22;;;16.56;28.30
10652;BME280;5374;42.742;23.266;2023-03-14T15:06:02;94591.28;;;16.46;28.32
10652;BME280;5374;42.742;23.266;2023-03-14T15:08:50;94586.78;;;16.33;28.64
10652;BME280;5374;42.742;23.266;2023-03-14T15:11:38;94594.88;;;16.41;28.58